• Join FlightAware (Why Join?)
  • Login
  • US Flag 
08:57PM EDT


 

Airport Tracker/Info


-or-


 

Live Flight TrackerFlight Track Log ✈ SWA2153 ✈ 29-Jun-2013 ✈ KBWI - KMHT

Flight Track Log - Related Links

Times and Time Zones

All times are in EDT time to prevent confusion due to time zone crossing. See the SWA2153 flight status page for this flight to view local times or setup timezone preferences in your user account.

Time Position Orientation Groundspeed Altitude Reporting Facility
EDT Latitude Longitude Course Direction KTS MPH feet Rate Location/Type
09:30PM 39.0890 -76.5840 140° Southeast 229 264 4,800  Level FlightAware
09:31PM 39.0700 -76.5510 127° Southeast 252 290 6,200 1,980 Climbing FlightAware
09:31PM 39.0740 -76.5170 81° East 293 337 6,700 2,640 Climbing FlightAware
09:32PM 39.0880 -76.4700 69° East 292 336 8,500 3,720 Climbing FlightAware
09:32PM 39.0930 -76.4490 73° East 297 342 9,200 2,580 Climbing FlightAware
09:33PM 39.1160 -76.3630 71° East 337 388 11,100 2,580 Climbing FlightAware
09:33PM 39.1380 -76.2800 71° East 359 413 13,000 2,580 Climbing FlightAware
09:34PM 39.1560 -76.1910 75° East 384 442 14,700 2,460 Climbing FlightAware
09:35PM 39.1670 -76.0970 81° East 398 458 16,400 2,400 Climbing FlightAware
09:35PM 39.1780 -75.9960 82° East 409 471 18,100 2,400 Climbing FlightAware
09:36PM 39.1930 -75.8960 79° East 420 483 19,700 2,160 Climbing FlightAware
09:36PM 39.2080 -75.8610 61° Northeast 429 494 20,200 2,040 Climbing FlightAware
09:37PM 39.2720 -75.7770 45° Northeast 434 499 21,800 1,920 Climbing FlightAware
09:38PM 39.3300 -75.7020 45° Northeast 452 520 23,000 1,800 Climbing FlightAware
09:38PM 39.3880 -75.6260 45° Northeast 458 527 24,200 1,680 Climbing FlightAware
09:39PM 39.4580 -75.5360 45° Northeast 476 548 25,400 1,560 Climbing FlightAware
09:40PM 39.5130 -75.4640 45° Northeast 486 559 26,300 1,500 Climbing FlightAware
09:41PM 39.5930 -75.3580 46° Northeast 498 573 27,600 1,500 Climbing FlightAware
09:41PM 39.6640 -75.2630 46° Northeast 507 583 28,700 1,380 Climbing FlightAware
09:42PM 39.7300 -75.1700 47° Northeast 515 593 29,600 1,320 Climbing FlightAware
09:43PM 39.7940 -75.0790 48° Northeast 521 600 30,500 960 Climbing FlightAware
09:43PM 39.8670 -74.9750 48° Northeast 525 604 31,000 300 Climbing FlightAware
09:44PM 39.9350 -74.8790 47° Northeast 525 604 31,000 180 Level FlightAware
09:44PM 39.9760 -74.8210 47° Northeast 529 609 31,200 1,260 Climbing FlightAware
09:46PM 40.0822 -74.6747 47° Northeast 520 598 33,000 1,320 Climbing New York Center
09:47PM 40.2031 -74.6164 20° North 498 573 34,100 960 Climbing New York Center
09:48PM 40.3442 -74.5669 15° North 503 579 35,000 420 Climbing New York Center
09:49PM 40.4853 -74.5231 13° North 509 586 35,000  Level New York Center
09:51PM 40.7592 -74.4375 13° North 500 575 35,000 -120 Level Boston Center
09:57PM 41.5990 -74.1760 13° North 521 600 34,100 -300 Descending FlightAware
09:57PM 41.7390 -74.1310 13° North 513 590 33,100 -1,260 Descending FlightAware
09:58PM 41.8080 -74.0990 19° North 516 594 32,600 -1,080 Descending FlightAware
09:58PM 41.8600 -74.0390 41° Northeast 517 595 32,100 -1,080 Descending FlightAware
09:59PM 41.9100 -73.9330 58° Northeast 510 587 31,400 -1,140 Descending FlightAware
09:59PM 41.9380 -73.8740 57° Northeast 507 583 31,000 -960 Descending FlightAware
10:01PM 42.0203 -73.6947 57° Northeast 485 558 29,900 -960 Descending Boston Center
10:02PM 42.0992 -73.5314 57° Northeast 506 582 28,800 -1,440 Descending Boston Center
10:03PM 42.1672 -73.3756 59° Northeast 505 581 27,100 -1,800 Descending Boston Center
10:04PM 42.2308 -73.2392 58° Northeast 461 531 25,300 -1,740 Descending Boston Center
10:09PM 42.5400 -72.5570 58° Northeast 386 444 16,500 -1,800 Descending FlightAware
10:09PM 42.5920 -72.4420 58° Northeast 375 432 15,000 -1,980 Descending FlightAware
10:10PM 42.6290 -72.3580 59° Northeast 366 421 13,900 -960 Descending FlightAware
10:11PM 42.6790 -72.2480 58° Northeast 364 419 13,400 -1,620 Descending FlightAware
10:12PM 42.7130 -72.1680 60° Northeast 354 407 11,300 -2,100 Descending FlightAware
10:13PM 42.7570 -72.0700 59° Northeast 338 389 10,200 -1,140 Descending FlightAware
10:13PM 42.7830 -72.0110 59° Northeast 323 372 9,700 -960 Descending FlightAware
10:14PM 42.8000 -71.9720 59° Northeast 311 358 9,300 -1,200 Descending FlightAware
10:14PM 42.8160 -71.9360 59° Northeast 305 351 8,800 -1,860 Descending FlightAware
10:14PM 42.8340 -71.8930 60° Northeast 306 352 8,000 -1,440 Descending FlightAware
10:17PM 42.9300 -71.6630 60° Northeast 288 331 4,500 -1,140 Descending FlightAware
10:21PM 42.9620 -71.4500 78° East 137 158 1,000 -840 Descending FlightAware
10:21PM 42.9480 -71.4460 168° South 137 158 1,000 23,640 Level FlightAware
10:22PM 42.9169 -71.4281 168° South 115 132 31,000 16,500 Climbing Boston Center
10:23PM 42.8856 -71.4144 162° South 115 132 31,000  Level Boston Center
10:24PM 42.8542 -71.4006 162° South 115 132 31,000  Level Boston Center
10:25PM 42.8292 -71.3897 162° South 115 132 31,000  Level Boston Center
10:29PM 42.9167 -71.4333 316° Northwest  Level FlightAware Approximate
10:36PM 42.9328 -71.4358 316° Northwest  Level Estimated
10:37PM 42.9328 -71.4358 316° Northwest  Level Estimated
10:38PM 42.9328 -71.4358 316° Northwest  Level Estimated